Palestina, Brazil
Current Conditions -  °F | °C
As of 12:00 PM on Thursday 27 Nov 2014 (Local Time) from SBSR Reporting Station
Overcast Overcast  
Wind Chill: 82°   Ceiling: 2500
Heat Index: 85°   Visibility: 6mi
Dew Point: 66°   Wind: 5mph
Humidity: 58%   Direction: 20°NNE
Pressure: 29.94"   Gusts: NA
Location:  20.39°S, 49.43°W
Report Text: SBSR 271400Z 02004KT 9999 BKN025 OVC070 28/19 Q1014
Loading
Personal Weather Stations






























Interactive Weather Map New forecast layout! Learn more

10-Day Weather Forecast

Advertisements
Track Severe Weather on mobile